EHAM/AMS METAR and TAF weather

Enter ICAO airport designator
Station Type Date Time Source
EHAM METAR 2019/05/23 18:55 UTC NOAA

EHAM 231855Z 00000KT CAVOK 17/07 Q1015 NOSIG


Station Type Date Time Source
EHAM Decoded METAR 2019/05/23 18:55 UTC NOAA

Amsterdam Airport Schiphol, Netherlands (EHAM) 52-18N 004-46E -2M
May 23, 2019 - 02:55 PM EDT / 2019.05.23 1855 UTC
Wind: Calm:0
Visibility: greater than 7 mile(s):0
Temperature: 62 F (17 C)
Dew Point: 44 F (7 C)
Relative Humidity: 51%
Pressure (altimeter): 29.97 in. Hg (1015 hPa)
ob: EHAM 231855Z 00000KT CAVOK 17/07 Q1015 NOSIG
cycle: 19

Station Type Date Time Source
EHAM TAF 2019/05/23 18:27 UTC NOAA

TAF TAF EHAM 231633Z 2318/2424 20005KT CAVOK
BECMG 2409/2412 30012KT
BECMG 2418/2421 33005KT

Example: see airport list